Terminal Aerodrome Forecast
Issued by NWS Tuscon, AZ

Home | Current Version | Previous Version | Text Only | Print | Product List | Glossary On
Versions: 1 2 3 4 5 6 7 8 9 10 11 12 13 14
000
FTUS45 KTWC 261100
TAFTUS
TAF
KTUS 261125Z 2612/2712 30008KT P6SM SCT110 OVC200
     FM261900 12007KT P6SM BKN100 OVC150
     FM262200 10006KT P6SM -SHRA BKN040 OVC060
     FM270600 12006KT P6SM VCSH BKN040 OVC060
     FM270900 13006KT P6SM SCT040 BKN080=

USA.gov is the U.S. government's official web portal to all federal, state and local government web resources and services.